createdAt,value
2018-05-08T00:00:21.769Z,67.85
2018-05-08T00:02:49.293Z,67.61
2018-05-08T00:05:16.900Z,67.54
2018-05-08T00:07:44.424Z,66.37
2018-05-08T00:10:12.424Z,65.37
2018-05-08T00:12:39.988Z,65.79
2018-05-08T00:15:07.553Z,66.67
2018-05-08T00:17:35.110Z,67.29
2018-05-08T00:20:02.663Z,66.92
2018-05-08T00:22:30.213Z,66.32
2018-05-08T00:24:57.791Z,67.75
2018-05-08T00:27:25.344Z,68.02
2018-05-08T00:29:52.906Z,67.27
2018-05-08T00:32:20.567Z,67.35
2018-05-08T00:34:48.125Z,68.27
2018-05-08T00:37:15.897Z,67.76
2018-05-08T00:39:43.452Z,67.67
2018-05-08T00:42:11.030Z,69.29
2018-05-08T00:44:38.557Z,69.73
2018-05-08T00:47:06.110Z,70.54
2018-05-08T00:49:33.688Z,69.17
2018-05-08T00:52:01.360Z,70.37
2018-05-08T00:54:40.668Z,69.61
2018-05-08T00:57:08.347Z,69.05
2018-05-08T00:59:35.871Z,69.90
2018-05-08T01:02:03.436Z,70.06
2018-05-08T01:04:31.129Z,69.69
2018-05-08T01:06:58.649Z,70.81
2018-05-08T01:09:26.228Z,69.85
2018-05-08T01:11:53.758Z,70.63
2018-05-08T01:14:21.382Z,69.48
2018-05-08T01:16:48.939Z,69.46
2018-05-08T01:19:16.590Z,70.64
2018-05-08T01:21:44.146Z,72.20
2018-05-08T01:24:11.795Z,71.29
2018-05-08T01:26:39.375Z,70.89
2018-05-08T01:29:07.041Z,72.09
2018-05-08T01:31:34.656Z,71.22
2018-05-08T01:34:02.153Z,71.27
2018-05-08T01:36:30.603Z,70.80
2018-05-08T01:38:58.154Z,69.77
2018-05-08T01:41:25.707Z,70.31
2018-05-08T01:43:53.313Z,69.47
2018-05-08T01:46:20.973Z,71.30
2018-05-08T01:48:48.484Z,72.39
2018-05-08T01:51:16.040Z,73.31
2018-05-08T01:53:44.022Z,74.20
2018-05-08T01:56:11.569Z,74.48
2018-05-08T01:58:39.178Z,74.05
2018-05-08T02:01:06.725Z,73.94
2018-05-08T02:03:34.297Z,73.51
2018-05-08T02:06:01.960Z,72.39
2018-05-08T02:08:29.535Z,71.31
2018-05-08T02:10:57.086Z,72.71
2018-05-08T02:13:24.945Z,72.06
2018-05-08T02:15:52.487Z,71.65
2018-05-08T02:18:20.040Z,71.40
2018-05-08T02:20:47.602Z,73.67
2018-05-08T02:23:15.297Z,72.34
2018-05-08T02:25:42.822Z,71.77
2018-05-08T02:28:10.404Z,71.32
2018-05-08T02:30:37.965Z,72.08
2018-05-08T02:33:05.504Z,71.79
2018-05-08T02:35:33.085Z,72.44
2018-05-08T02:38:00.658Z,71.69
2018-05-08T02:40:28.212Z,73.53
2018-05-08T02:42:55.765Z,73.82
2018-05-08T02:45:23.315Z,74.40
2018-05-08T02:47:50.889Z,73.80
2018-05-08T02:50:18.473Z,74.79
2018-05-08T02:52:46.104Z,74.53
2018-05-08T02:55:14.589Z,74.50
2018-05-08T02:57:42.130Z,75.37
2018-05-08T03:00:09.806Z,75.54
2018-05-08T03:02:37.376Z,75.86
2018-05-08T03:05:05.034Z,74.75
2018-05-08T03:07:32.586Z,73.99
2018-05-08T03:10:00.167Z,75.02
2018-05-08T03:12:27.689Z,74.31
2018-05-08T03:14:55.264Z,73.62
2018-05-08T03:17:22.789Z,72.69
2018-05-08T03:19:50.495Z,74.22
2018-05-08T03:22:18.058Z,75.17
2018-05-08T03:24:45.707Z,75.15
2018-05-08T03:27:13.370Z,74.80
2018-05-08T03:29:40.929Z,75.65
2018-05-08T03:32:08.477Z,75.23
2018-05-08T03:34:36.061Z,74.09
2018-05-08T03:37:03.614Z,74.96
2018-05-08T03:39:31.271Z,74.79
2018-05-08T03:41:58.862Z,74.71
2018-05-08T03:44:26.394Z,75.69
2018-05-08T03:46:53.947Z,74.46
2018-05-08T03:49:21.519Z,73.88
2018-05-08T03:51:49.176Z,73.94
2018-05-08T03:54:16.728Z,76.10
2018-05-08T03:56:44.903Z,76.52
2018-05-08T03:59:12.463Z,77.29
2018-05-08T04:01:51.914Z,77.84
2018-05-08T04:04:31.185Z,76.38
2018-05-08T04:07:10.583Z,78.15
2018-05-08T04:09:38.115Z,77.05
2018-05-08T04:12:05.694Z,76.76
2018-05-08T04:14:33.249Z,76.69
2018-05-08T04:17:00.811Z,78.36
2018-05-08T04:19:28.396Z,77.75
2018-05-08T04:21:56.032Z,78.82
2018-05-08T04:24:23.599Z,80.18
2018-05-08T04:26:51.156Z,79.57
2018-05-08T04:29:18.814Z,80.38
2018-05-08T04:31:46.338Z,81.36
2018-05-08T04:34:14.965Z,81.49
2018-05-08T04:36:42.642Z,82.00
2018-05-08T04:39:10.280Z,80.98
2018-05-08T04:41:37.794Z,80.25
2018-05-08T04:44:05.403Z,79.14
2018-05-08T04:46:32.924Z,78.81
2018-05-08T04:49:00.527Z,78.58
2018-05-08T04:51:28.081Z,78.06
2018-05-08T04:53:55.743Z,77.14
2018-05-08T04:56:23.298Z,78.29
2018-05-08T04:58:50.885Z,77.25
2018-05-08T05:01:19.043Z,76.14
2018-05-08T05:03:46.592Z,76.00
2018-05-08T05:06:15.041Z,75.36
2018-05-08T05:08:42.572Z,75.79
2018-05-08T05:11:10.151Z,75.63
2018-05-08T05:13:37.753Z,74.02
2018-05-08T05:16:05.301Z,73.15
2018-05-08T05:18:32.832Z,73.36
2018-05-08T05:21:00.378Z,72.62
2018-05-08T05:23:27.903Z,71.87
2018-05-08T05:25:55.863Z,71.98
2018-05-08T05:28:23.466Z,70.84
2018-05-08T05:30:51.066Z,69.53
2018-05-08T05:33:18.638Z,69.68
2018-05-08T05:35:46.169Z,69.16
2018-05-08T05:38:13.722Z,68.64
2018-05-08T05:40:41.328Z,67.59
2018-05-08T05:43:08.981Z,67.46
2018-05-08T05:45:36.546Z,66.63
2018-05-08T05:48:04.200Z,65.69
2018-05-08T05:50:31.733Z,64.84
2018-05-08T05:52:59.323Z,64.52
2018-05-08T05:55:27.296Z,64.10
2018-05-08T05:57:54.904Z,63.46
2018-05-08T06:00:22.442Z,63.45
2018-05-08T06:02:49.996Z,62.39
2018-05-08T06:05:17.547Z,62.31
2018-05-08T06:07:45.248Z,61.04
2018-05-08T06:10:12.954Z,60.39
2018-05-08T06:12:40.506Z,59.97
2018-05-08T06:15:08.083Z,59.98
2018-05-08T06:20:06.027Z,59.63
2018-05-08T06:22:33.735Z,58.85
2018-05-08T06:25:01.383Z,58.64
2018-05-08T06:27:28.915Z,58.27
2018-05-08T06:29:56.470Z,58.77
2018-05-08T06:32:23.997Z,57.78
2018-05-08T06:34:51.724Z,57.33
2018-05-08T06:37:19.281Z,56.42
2018-05-08T06:39:46.856Z,56.92
2018-05-08T06:42:15.430Z,56.59
2018-05-08T06:44:43.011Z,56.11
2018-05-08T06:47:10.534Z,55.85
2018-05-08T06:49:38.211Z,55.45
2018-05-08T06:52:05.775Z,54.84
2018-05-08T06:54:33.442Z,55.19
2018-05-08T06:57:00.969Z,54.95
2018-05-08T06:59:28.547Z,54.53
2018-05-08T07:01:56.094Z,53.98
2018-05-08T07:04:23.666Z,53.31
2018-05-08T07:06:51.227Z,53.68
2018-05-08T07:09:18.804Z,53.00
2018-05-08T07:11:46.424Z,52.38
2018-05-08T07:14:13.955Z,51.61
2018-05-08T07:16:41.513Z,52.17
2018-05-08T07:19:09.059Z,51.90
2018-05-08T07:21:36.614Z,51.22
2018-05-08T07:24:07.587Z,50.93
2018-05-08T07:26:35.493Z,50.31
2018-05-08T07:29:03.720Z,49.68
2018-05-08T07:31:31.330Z,48.90
2018-05-08T07:33:58.876Z,49.57
2018-05-08T07:36:26.653Z,49.27
2018-05-08T07:38:54.326Z,49.04
2018-05-08T07:41:22.035Z,48.70
2018-05-08T07:43:49.848Z,48.66
2018-05-08T07:46:17.438Z,48.86
2018-05-08T07:48:46.293Z,48.94
2018-05-08T07:51:14.820Z,48.25
2018-05-08T07:53:42.346Z,47.85
2018-05-08T07:56:10.822Z,47.65
2018-05-08T07:58:38.499Z,48.01
2018-05-08T08:01:07.124Z,47.74
2018-05-08T08:03:34.647Z,47.16
2018-05-08T08:06:02.932Z,47.18
2018-05-08T08:08:30.506Z,45.38
2018-05-08T08:10:58.267Z,46.21
2018-05-08T08:13:27.008Z,46.13
2018-05-08T08:15:54.873Z,46.02
2018-05-08T08:18:23.511Z,45.98
2018-05-08T08:20:51.067Z,45.26
2018-05-08T08:23:19.445Z,45.77
2018-05-08T08:25:47.046Z,45.82
2018-05-08T08:28:15.773Z,45.84
2018-05-08T08:30:43.621Z,45.80
2018-05-08T08:33:11.275Z,45.01
2018-05-08T08:35:38.912Z,43.88
2018-05-08T08:38:06.939Z,43.55
2018-05-08T08:40:34.780Z,45.11
2018-05-08T08:43:02.387Z,44.43
2018-05-08T08:45:30.636Z,43.99
2018-05-08T08:48:00.039Z,42.63
2018-05-08T08:50:27.645Z,42.04
2018-05-08T08:52:55.226Z,42.16
2018-05-08T08:55:22.746Z,41.43
2018-05-08T08:57:50.454Z,41.49
2018-05-08T09:00:18.119Z,42.43
2018-05-08T09:02:47.006Z,40.41
2018-05-08T09:05:14.544Z,41.09
2018-05-08T09:07:42.430Z,40.82
2018-05-08T09:10:10.515Z,40.89
2018-05-08T09:12:38.116Z,39.99
2018-05-08T09:15:05.663Z,39.99
2018-05-08T09:17:36.497Z,40.16
2018-05-08T09:20:04.427Z,39.27
2018-05-08T09:22:32.125Z,38.63
2018-05-08T09:24:59.935Z,38.47
2018-05-08T09:27:28.132Z,38.32
2018-05-08T09:29:55.691Z,38.65
2018-05-08T09:32:23.353Z,38.86
2018-05-08T09:34:51.186Z,39.35
2018-05-08T09:37:18.790Z,38.45
2018-05-08T09:39:46.344Z,38.25
2018-05-08T09:42:15.677Z,38.55
2018-05-08T09:44:43.322Z,38.57
2018-05-08T09:47:10.968Z,37.68
2018-05-08T09:49:38.727Z,37.88
2018-05-08T09:52:06.905Z,38.83
2018-05-08T09:54:34.482Z,37.72
2018-05-08T09:57:03.059Z,37.72
2018-05-08T09:59:31.608Z,37.08
2018-05-08T10:01:59.184Z,37.50
2018-05-08T10:04:28.817Z,37.41
2018-05-08T10:06:56.566Z,37.24
2018-05-08T10:09:26.671Z,37.11
2018-05-08T10:11:55.165Z,37.52
2018-05-08T10:14:23.639Z,37.83
2018-05-08T10:16:51.198Z,38.29
2018-05-08T10:19:19.677Z,37.33
2018-05-08T10:21:48.745Z,37.55
2018-05-08T10:24:22.236Z,36.84
2018-05-08T10:26:50.494Z,37.60
2018-05-08T10:29:18.831Z,36.68
2018-05-08T10:31:46.696Z,36.65
2018-05-08T10:34:14.356Z,37.63
2018-05-08T10:36:42.758Z,37.46
2018-05-08T10:39:10.745Z,37.21
2018-05-08T10:41:38.469Z,37.18
2018-05-08T10:44:07.267Z,35.99
2018-05-08T10:46:35.225Z,36.67
2018-05-08T10:49:03.829Z,37.99
2018-05-08T10:51:35.237Z,36.18
2018-05-08T10:54:04.111Z,36.04
2018-05-08T10:56:32.324Z,35.45
2018-05-08T10:59:00.161Z,34.46
2018-05-08T11:01:27.714Z,35.59
2018-05-08T11:03:56.029Z,35.13
2018-05-08T11:06:23.690Z,35.34
2018-05-08T11:08:51.845Z,36.80
2018-05-08T11:11:19.449Z,36.39
2018-05-08T11:13:47.029Z,36.04
2018-05-08T11:16:15.280Z,35.28
2018-05-08T11:18:42.832Z,35.20
2018-05-08T11:21:10.381Z,34.61
2018-05-08T11:23:37.935Z,34.18
2018-05-08T11:26:05.514Z,33.91
2018-05-08T11:28:33.055Z,33.96
2018-05-08T11:31:00.611Z,33.76
2018-05-08T11:33:28.172Z,33.08
2018-05-08T11:35:55.717Z,33.65
2018-05-08T11:38:23.249Z,32.36
2018-05-08T11:40:50.852Z,32.51
2018-05-08T11:43:18.349Z,33.47
2018-05-08T11:45:45.972Z,33.91
2018-05-08T11:48:13.641Z,32.93
2018-05-08T11:50:41.207Z,31.75
2018-05-08T11:53:08.761Z,32.15
2018-05-08T11:55:36.338Z,32.50
2018-05-08T11:58:03.979Z,33.02
2018-05-08T12:00:31.493Z,31.86
2018-05-08T12:02:59.094Z,31.08
2018-05-08T12:05:26.623Z,31.48
2018-05-08T12:07:54.180Z,31.26
2018-05-08T12:10:22.497Z,31.99
2018-05-08T12:12:50.052Z,31.64
2018-05-08T12:15:17.606Z,31.80
2018-05-08T12:17:45.159Z,31.30
2018-05-08T12:20:12.686Z,31.53
2018-05-08T12:22:40.238Z,31.41
2018-05-08T12:25:07.846Z,31.60
2018-05-08T12:27:35.418Z,30.17
2018-05-08T12:30:02.945Z,30.56
2018-05-08T12:32:30.500Z,29.63
2018-05-08T12:34:58.025Z,30.12
2018-05-08T12:37:25.600Z,30.13
2018-05-08T12:39:53.130Z,29.90
2018-05-08T12:42:20.658Z,27.29
2018-05-08T12:44:48.209Z,28.10
2018-05-08T12:47:15.778Z,27.13
2018-05-08T12:49:43.418Z,27.27
2018-05-08T12:52:10.963Z,27.91
2018-05-08T12:54:38.570Z,27.87
2018-05-08T12:57:06.120Z,28.71
2018-05-08T12:59:33.781Z,29.39
2018-05-08T13:02:01.301Z,29.08
2018-05-08T13:04:28.873Z,27.97
2018-05-08T13:06:56.472Z,29.21
2018-05-08T13:09:24.133Z,29.15
2018-05-08T13:11:52.704Z,28.83
2018-05-08T13:14:20.233Z,28.81
2018-05-08T13:16:47.837Z,28.30
2018-05-08T13:19:15.391Z,29.57
2018-05-08T13:21:43.048Z,29.78
2018-05-08T13:24:10.613Z,28.95
2018-05-08T13:26:38.252Z,29.89
2018-05-08T13:29:05.798Z,28.96
2018-05-08T13:31:33.499Z,27.92
2018-05-08T13:34:01.052Z,28.00
2018-05-08T13:36:30.774Z,28.69
2018-05-08T13:38:58.316Z,28.77
2018-05-08T13:41:25.978Z,29.21
2018-05-08T13:43:53.641Z,28.62
2018-05-08T13:46:21.214Z,28.58
2018-05-08T13:48:48.782Z,27.71
2018-05-08T13:51:16.341Z,27.47
2018-05-08T13:53:43.878Z,28.03
2018-05-08T13:56:11.439Z,27.12
2018-05-08T13:58:38.998Z,27.12
2018-05-08T14:01:06.557Z,26.58
2018-05-08T14:03:34.106Z,26.48
2018-05-08T14:06:01.682Z,25.75
2018-05-08T14:08:29.232Z,25.69
2018-05-08T14:10:56.781Z,26.14
2018-05-08T14:13:24.353Z,26.39
2018-05-08T14:15:52.941Z,26.57
2018-05-08T14:18:20.514Z,26.92
2018-05-08T14:20:48.056Z,25.91
2018-05-08T14:23:15.622Z,25.93
2018-05-08T14:25:43.177Z,26.39
2018-05-08T14:28:10.735Z,26.86
2018-05-08T14:30:38.307Z,26.12
2018-05-08T14:33:05.877Z,26.19
2018-05-08T14:35:33.408Z,26.18
2018-05-08T14:38:00.978Z,26.12
2018-05-08T14:40:28.533Z,26.65
2018-05-08T14:42:56.210Z,25.76
2018-05-08T14:45:23.766Z,25.08
2018-05-08T14:47:51.420Z,26.13
2018-05-08T14:50:18.976Z,26.74
2018-05-08T14:52:46.535Z,27.93
2018-05-08T14:55:14.154Z,26.29
2018-05-08T14:57:41.731Z,24.46
2018-05-08T15:00:09.333Z,25.92
2018-05-08T15:02:36.883Z,24.70
2018-05-08T15:05:04.539Z,25.47
2018-05-08T15:07:32.065Z,23.95
2018-05-08T15:09:59.616Z,25.12
2018-05-08T15:12:27.141Z,25.08
2018-05-08T15:14:54.693Z,24.55
2018-05-08T15:17:23.257Z,24.89
2018-05-08T15:19:50.874Z,25.66
2018-05-08T15:22:18.466Z,25.59
2018-05-08T15:24:46.002Z,25.74
2018-05-08T15:27:13.530Z,26.14
2018-05-08T15:29:41.157Z,25.64
2018-05-08T15:32:08.687Z,25.74
2018-05-08T15:34:36.265Z,25.71
2018-05-08T15:37:03.835Z,25.49
2018-05-08T15:39:31.410Z,26.32
2018-05-08T15:41:58.948Z,25.52
2018-05-08T15:44:26.523Z,24.88
2018-05-08T15:46:54.103Z,25.86
2018-05-08T15:49:21.734Z,25.70
2018-05-08T15:51:49.397Z,25.19
2018-05-08T15:54:17.030Z,26.28
2018-05-08T15:56:44.607Z,25.27
2018-05-08T15:59:12.183Z,25.01
2018-05-08T16:01:39.845Z,24.62
2018-05-08T16:04:07.387Z,24.54
2018-05-08T16:06:34.940Z,24.74
2018-05-08T16:09:03.365Z,24.11
2018-05-08T16:11:31.013Z,23.77
2018-05-08T16:13:58.574Z,23.56
2018-05-08T16:16:26.146Z,23.60
2018-05-08T16:18:53.824Z,23.90
2018-05-08T16:21:21.453Z,23.23
2018-05-08T16:23:48.977Z,22.80
2018-05-08T16:26:16.667Z,22.89
2018-05-08T16:28:44.221Z,23.37
2018-05-08T16:31:11.780Z,23.84
2018-05-08T16:33:39.341Z,23.63
2018-05-08T16:36:07.016Z,23.75
2018-05-08T16:38:34.568Z,23.22
2018-05-08T16:41:02.122Z,23.29
2018-05-08T16:43:29.683Z,23.22
2018-05-08T16:45:57.250Z,23.26
2018-05-08T16:48:24.803Z,23.95
2018-05-08T16:50:52.378Z,23.85
2018-05-08T16:53:19.928Z,23.31
2018-05-08T16:55:47.587Z,23.78
2018-05-08T16:58:15.142Z,23.35
2018-05-08T17:00:42.701Z,19.00
2018-05-08T17:03:10.265Z,18.18
2018-05-08T17:05:37.899Z,17.46
2018-05-08T17:08:05.493Z,17.20
2018-05-08T17:10:33.109Z,16.55
2018-05-08T17:13:00.707Z,15.28
2018-05-08T17:15:28.253Z,16.63
2018-05-08T17:17:55.824Z,16.59
2018-05-08T17:20:23.383Z,16.03
2018-05-08T17:22:51.056Z,17.03
2018-05-08T17:25:18.611Z,16.89
2018-05-08T17:27:46.163Z,16.83
2018-05-08T17:30:13.722Z,16.81
2018-05-08T17:32:41.280Z,16.70
2018-05-08T17:35:08.841Z,17.59
2018-05-08T17:37:36.519Z,17.90
2018-05-08T17:40:04.174Z,17.90
2018-05-08T17:42:31.827Z,17.87
2018-05-08T17:44:59.356Z,17.82
2018-05-08T17:47:26.950Z,18.49
2018-05-08T17:49:54.482Z,18.27
2018-05-08T17:52:22.180Z,18.79
2018-05-08T17:54:49.737Z,20.74
2018-05-08T17:57:17.568Z,19.68
2018-05-08T17:59:45.153Z,20.16
2018-05-08T18:02:12.746Z,22.39
2018-05-08T18:04:40.380Z,23.09
2018-05-08T18:07:07.948Z,24.08
2018-05-08T18:09:35.500Z,23.95
2018-05-08T18:12:03.155Z,24.46
2018-05-08T18:14:30.713Z,24.42
2018-05-08T18:16:58.377Z,25.33
2018-05-08T18:19:25.936Z,26.54
2018-05-08T18:21:53.606Z,27.79
2018-05-08T18:24:21.139Z,27.86
2018-05-08T18:26:48.717Z,28.49
2018-05-08T18:29:16.242Z,28.81
2018-05-08T18:31:43.819Z,30.06
2018-05-08T18:34:11.399Z,30.95
2018-05-08T18:36:38.953Z,31.45
2018-05-08T18:39:06.593Z,32.37
2018-05-08T18:41:34.141Z,33.45
2018-05-08T18:44:01.791Z,33.26
2018-05-08T18:46:30.011Z,33.80
2018-05-08T18:48:57.585Z,33.69
2018-05-08T18:51:25.134Z,34.82
2018-05-08T18:53:52.740Z,34.80
2018-05-08T18:56:20.266Z,35.65
2018-05-08T18:58:47.844Z,36.11
2018-05-08T19:01:15.474Z,37.29
2018-05-08T19:03:43.152Z,38.12
2018-05-08T19:06:10.801Z,38.14
2018-05-08T19:08:40.403Z,38.97
2018-05-08T19:11:13.492Z,39.33
2018-05-08T19:13:41.064Z,39.26
2018-05-08T19:16:08.611Z,39.55
2018-05-08T19:18:41.841Z,40.20
2018-05-08T19:21:09.436Z,39.99
2018-05-08T19:23:37.190Z,40.39
2018-05-08T19:26:04.720Z,41.67
2018-05-08T19:31:36.125Z,42.47
2018-05-08T19:34:03.697Z,42.62
2018-05-08T19:36:36.785Z,43.12
2018-05-08T19:39:05.350Z,43.76
2018-05-08T19:41:32.831Z,43.84
2018-05-08T19:44:00.405Z,44.11
2018-05-08T19:46:27.942Z,45.05
2018-05-08T19:48:55.514Z,45.49
2018-05-08T19:51:23.041Z,46.23
2018-05-08T19:53:50.593Z,46.41
2018-05-08T19:56:18.206Z,46.38
2018-05-08T19:58:45.863Z,47.62
2018-05-08T20:01:13.404Z,47.70
2018-05-08T20:03:40.927Z,48.12
2018-05-08T20:06:25.550Z,48.83
2018-05-08T20:12:06.681Z,48.97
2018-05-08T20:14:34.312Z,49.66
2018-05-08T20:17:01.842Z,50.56
2018-05-08T20:19:29.814Z,50.72
2018-05-08T20:21:57.490Z,51.19
2018-05-08T20:24:25.022Z,51.44
2018-05-08T20:26:52.573Z,51.79
2018-05-08T20:29:20.177Z,51.32
2018-05-08T20:31:48.240Z,51.38
2018-05-08T20:34:15.901Z,51.83
2018-05-08T20:36:43.460Z,53.25
2018-05-08T20:39:10.984Z,53.14
2018-05-08T20:41:38.539Z,52.74
2018-05-08T20:44:06.065Z,53.10
2018-05-08T20:46:33.611Z,53.84
2018-05-08T20:49:01.119Z,53.39
2018-05-08T20:51:28.716Z,53.52
2018-05-08T20:53:56.247Z,53.31
2018-05-08T20:56:23.826Z,53.54
2018-05-08T20:58:51.352Z,53.88
2018-05-08T21:01:18.985Z,54.33
2018-05-08T21:03:46.513Z,54.31
2018-05-08T21:06:14.176Z,54.72
2018-05-08T21:08:41.838Z,54.09
2018-05-08T21:11:09.398Z,54.26
2018-05-08T21:13:36.969Z,54.16
2018-05-08T21:16:04.518Z,54.13
2018-05-08T21:18:32.075Z,54.77
2018-05-08T21:21:00.549Z,54.44
2018-05-08T21:23:28.073Z,55.03
2018-05-08T21:25:56.624Z,56.30
2018-05-08T21:28:29.778Z,55.78
2018-05-08T21:31:02.953Z,55.82
2018-05-08T21:33:30.505Z,55.44
2018-05-08T21:35:58.099Z,57.31
2018-05-08T21:38:25.886Z,56.57
2018-05-08T21:40:56.284Z,57.24
2018-05-08T21:43:24.046Z,56.81
2018-05-08T21:45:51.717Z,56.34
2018-05-08T21:48:19.276Z,57.53
2018-05-08T21:50:46.849Z,57.07
2018-05-08T21:53:14.501Z,58.46
2018-05-08T21:55:44.177Z,58.52
2018-05-08T21:58:12.717Z,57.98
2018-05-08T22:00:41.463Z,59.80
2018-05-08T22:03:11.432Z,59.67
2018-05-08T22:05:41.727Z,59.21
2018-05-08T22:08:09.518Z,59.34
2018-05-08T22:10:39.664Z,58.87
2018-05-08T22:13:07.314Z,59.52
2018-05-08T22:15:35.720Z,59.97
2018-05-08T22:18:05.069Z,60.43
2018-05-08T22:20:34.848Z,60.44
2018-05-08T22:23:04.377Z,60.08
2018-05-08T22:25:33.079Z,61.03
2018-05-08T22:28:01.181Z,60.76
2018-05-08T22:30:29.388Z,60.80
2018-05-08T22:32:59.984Z,60.55
2018-05-08T22:35:30.883Z,60.75
2018-05-08T22:37:58.913Z,61.08
2018-05-08T22:40:27.365Z,61.85
2018-05-08T22:42:55.372Z,60.72
2018-05-08T22:45:24.069Z,61.02
2018-05-08T22:47:52.350Z,61.04
2018-05-08T22:50:20.128Z,60.62
2018-05-08T22:52:48.130Z,61.71
2018-05-08T22:55:17.759Z,63.06
2018-05-08T22:57:45.759Z,63.08
2018-05-08T23:00:15.463Z,62.93
2018-05-08T23:02:44.665Z,62.50
2018-05-08T23:05:12.863Z,62.01
2018-05-08T23:07:42.112Z,64.64
2018-05-08T23:10:10.219Z,64.93
2018-05-08T23:12:38.898Z,66.04
2018-05-08T23:15:07.178Z,64.60
2018-05-08T23:17:34.724Z,64.70
2018-05-08T23:20:02.290Z,65.49
2018-05-08T23:22:29.833Z,64.57
2018-05-08T23:24:57.409Z,64.14
2018-05-08T23:27:24.936Z,64.21
2018-05-08T23:29:52.486Z,63.86
2018-05-08T23:32:20.016Z,64.61
2018-05-08T23:34:47.565Z,64.08
2018-05-08T23:37:15.105Z,63.69
2018-05-08T23:39:42.671Z,64.40
2018-05-08T23:42:10.195Z,64.20
2018-05-08T23:44:37.749Z,64.17
2018-05-08T23:47:05.277Z,64.76
2018-05-08T23:49:32.825Z,64.43
2018-05-08T23:52:01.337Z,65.16
2018-05-08T23:54:28.886Z,64.35
2018-05-08T23:56:56.511Z,64.74
2018-05-08T23:59:24.134Z,64.70
